Time;durP1;ratioP1;P1;durP2;ratioP2;P2;SDS_P1;SDS_P2;PMS_P1;PMS_P2;Temp;Humidity;BMP_temperature;BMP_pressure;BME280_temperature;BME280_humidity;BME280_pressure;Samples;Min_cycle;Max_cycle;Signal;HPM_P1;HPM_P2
2023/07/11 00:02:07;;;;;;;4.33;3.93;;;;;;;;;;4975061;28;20194;-75
2023/07/11 00:04:35;;;;;;;3.45;3.15;;;;;;;;;;4969426;28;20206;-76
2023/07/11 00:07:01;;;;;;;3.90;3.60;;;;;;;;;;4984790;28;20171;-76
2023/07/11 00:09:26;;;;;;;3.80;3.50;;;;;;;;;;4989584;28;20187;-76
2023/07/11 00:11:51;;;;;;;3.97;3.60;;;;;;;;;;4985148;28;20275;-76
2023/07/11 00:14:17;;;;;;;3.50;3.20;;;;;;;;;;4964748;28;20196;-76
2023/07/11 00:16:42;;;;;;;3.97;3.57;;;;;;;;;;4989658;28;20184;-75
2023/07/11 00:19:07;;;;;;;4.00;3.30;;;;;;;;;;4983548;28;20186;-76
2023/07/11 00:21:32;;;;;;;3.83;3.37;;;;;;;;;;4991011;28;20203;-76
2023/07/11 00:24:03;;;;;;;4.07;3.67;;;;;;;;;;4962092;28;20216;-76
2023/07/11 00:26:32;;;;;;;4.77;3.30;;;;;;;;;;4964857;28;20181;-76
2023/07/11 00:29:12;;;;;;;4.30;3.90;;;;;;;;;;4971738;28;20179;-76
2023/07/11 00:31:37;;;;;;;5.25;3.97;;;;;;;;;;4969950;28;20262;-76
2023/07/11 00:34:02;;;;;;;4.87;4.37;;;;;;;;;;4988361;28;20322;-76
2023/07/11 00:36:27;;;;;;;3.57;3.27;;;;;;;;;;4986390;28;20176;-76
2023/07/11 00:38:52;;;;;;;4.47;3.77;;;;;;;;;;4968314;28;20184;-76
2023/07/11 00:41:18;;;;;;;4.10;3.70;;;;;;;;;;4990501;28;20186;-76
2023/07/11 00:43:43;;;;;;;3.70;3.40;;;;;;;;;;4991322;28;20203;-76
2023/07/11 00:46:13;;;;;;;5.17;4.23;;;;;;;;;;4990417;28;20269;-76
2023/07/11 00:48:41;;;;;;;4.23;3.83;;;;;;;;;;4988285;28;20203;-76
2023/07/11 00:51:08;;;;;;;5.23;4.00;;;;;;;;;;4988009;28;20194;-75
2023/07/11 00:53:34;;;;;;;6.10;3.80;;;;;;;;;;4970328;28;20271;-76
2023/07/11 00:56:01;;;;;;;4.10;3.70;;;;;;;;;;4972383;28;20271;-76
2023/07/11 00:58:26;;;;;;;5.80;3.97;;;;;;;;;;4965815;28;20186;-75
2023/07/11 01:00:52;;;;;;;3.97;3.67;;;;;;;;;;4965357;28;20204;-76
2023/07/11 01:03:17;;;;;;;5.40;3.70;;;;;;;;;;4988429;28;20169;-76
2023/07/11 01:05:42;;;;;;;6.07;3.60;;;;;;;;;;4970643;28;20229;-76
2023/07/11 01:08:09;;;;;;;4.90;3.83;;;;;;;;;;4974239;28;20178;-76
2023/07/11 01:10:34;;;;;;;4.67;3.40;;;;;;;;;;4987938;28;20184;-76
2023/07/11 01:13:01;;;;;;;4.10;3.70;;;;;;;;;;4968042;28;20255;-76
2023/07/11 01:15:26;;;;;;;4.20;3.80;;;;;;;;;;4972111;28;20180;-75
2023/07/11 01:17:51;;;;;;;5.57;3.73;;;;;;;;;;4970111;28;20194;-76
2023/07/11 01:20:16;;;;;;;4.53;4.00;;;;;;;;;;4970456;28;20178;-76
2023/07/11 01:22:43;;;;;;;3.97;3.57;;;;;;;;;;4970959;28;20178;-76
2023/07/11 01:25:12;;;;;;;4.00;3.70;;;;;;;;;;4974580;28;20210;-76
2023/07/11 01:27:38;;;;;;;5.43;3.83;;;;;;;;;;4971342;28;20181;-76
2023/07/11 01:30:05;;;;;;;5.80;4.00;;;;;;;;;;4965446;28;20174;-75
2023/07/11 01:32:31;;;;;;;5.40;4.20;;;;;;;;;;4987965;28;20312;-75
2023/07/11 01:34:56;;;;;;;4.53;3.80;;;;;;;;;;4973331;28;20272;-75
2023/07/11 01:37:21;;;;;;;4.50;3.60;;;;;;;;;;4972043;28;20178;-76
2023/07/11 01:39:47;;;;;;;4.93;4.47;;;;;;;;;;4967683;28;20185;-76
2023/07/11 01:42:12;;;;;;;4.73;3.40;;;;;;;;;;4971331;28;20186;-76
2023/07/11 01:44:37;;;;;;;5.03;3.73;;;;;;;;;;4984523;28;20238;-76
2023/07/11 01:47:03;;;;;;;4.23;3.90;;;;;;;;;;4990138;28;20173;-76
2023/07/11 01:49:28;;;;;;;4.77;3.57;;;;;;;;;;4973506;28;20190;-75
2023/07/11 01:52:12;;;;;;;4.63;3.90;;;;;;;;;;4975846;28;20178;-75
2023/07/11 01:54:37;;;;;;;3.60;3.30;;;;;;;;;;4993307;28;20176;-76
2023/07/11 01:57:03;;;;;;;6.07;3.97;;;;;;;;;;4977155;28;20187;-76
2023/07/11 01:59:28;;;;;;;3.90;3.47;;;;;;;;;;4979420;28;20181;-76
2023/07/11 02:01:54;;;;;;;4.53;3.87;;;;;;;;;;4971541;28;20182;-76
2023/07/11 02:04:21;;;;;;;4.37;3.93;;;;;;;;;;4966909;28;20264;-76
2023/07/11 02:06:47;;;;;;;6.00;3.57;;;;;;;;;;4992898;28;20178;-76
2023/07/11 02:09:12;;;;;;;4.20;3.77;;;;;;;;;;4976250;28;20246;-75
2023/07/11 02:11:37;;;;;;;4.50;4.00;;;;;;;;;;4993906;28;20194;-76
2023/07/11 02:14:03;;;;;;;4.40;3.93;;;;;;;;;;4983226;28;20198;-76
2023/07/11 02:16:28;;;;;;;5.17;4.30;;;;;;;;;;4990221;28;20186;-75
2023/07/11 02:18:53;;;;;;;4.40;4.00;;;;;;;;;;4975151;28;20272;-75
2023/07/11 02:21:18;;;;;;;4.13;3.40;;;;;;;;;;4976611;28;20285;-78
2023/07/11 02:23:43;;;;;;;5.40;3.70;;;;;;;;;;4971151;28;20216;-78
2023/07/11 02:26:09;;;;;;;5.23;4.70;;;;;;;;;;4990569;28;20207;-78
2023/07/11 02:28:34;;;;;;;4.13;3.73;;;;;;;;;;4973339;28;20249;-78
2023/07/11 02:30:59;;;;;;;4.83;4.23;;;;;;;;;;4983638;28;20201;-75
2023/07/11 02:33:24;;;;;;;4.73;4.20;;;;;;;;;;4989657;28;20283;-76
2023/07/11 02:35:50;;;;;;;4.90;3.80;;;;;;;;;;4985369;28;20213;-76
2023/07/11 02:38:15;;;;;;;4.50;4.10;;;;;;;;;;4965652;28;20222;-76
2023/07/11 02:40:40;;;;;;;4.20;3.50;;;;;;;;;;4973852;28;20189;-76
2023/07/11 02:43:05;;;;;;;4.57;3.80;;;;;;;;;;4970278;28;20184;-76
2023/07/11 02:45:30;;;;;;;4.10;3.70;;;;;;;;;;4972964;28;20241;-76
2023/07/11 02:47:55;;;;;;;5.57;4.00;;;;;;;;;;4966141;28;20256;-76
2023/07/11 02:50:21;;;;;;;4.87;3.73;;;;;;;;;;4991492;28;20166;-76
2023/07/11 02:52:47;;;;;;;4.10;3.80;;;;;;;;;;4972996;28;20257;-76
2023/07/11 02:55:12;;;;;;;3.67;3.37;;;;;;;;;;4984765;28;20185;-75
2023/07/11 02:57:41;;;;;;;4.27;3.70;;;;;;;;;;4974509;28;20187;-76
2023/07/11 03:00:07;;;;;;;4.27;3.70;;;;;;;;;;4976641;28;20170;-76
2023/07/11 03:02:32;;;;;;;4.97;4.10;;;;;;;;;;4969102;28;20183;-76
2023/07/11 03:04:58;;;;;;;4.57;4.17;;;;;;;;;;4970498;28;20205;-75
2023/07/11 03:07:23;;;;;;;5.47;4.97;;;;;;;;;;4991305;28;20188;-76
2023/07/11 03:09:48;;;;;;;7.97;6.50;;;;;;;;;;4987399;28;20264;-75
2023/07/11 03:12:14;;;;;;;6.53;5.97;;;;;;;;;;4975470;28;20245;-76
2023/07/11 03:14:39;;;;;;;8.97;6.07;;;;;;;;;;4971362;28;20236;-76
2023/07/11 03:17:04;;;;;;;8.40;7.40;;;;;;;;;;4977224;28;20210;-76
2023/07/11 03:19:29;;;;;;;9.53;8.03;;;;;;;;;;4991800;28;20264;-76
2023/07/11 03:21:54;;;;;;;10.27;8.93;;;;;;;;;;4980903;28;20206;-76
2023/07/11 03:24:20;;;;;;;9.40;8.03;;;;;;;;;;4962939;28;20206;-75
2023/07/11 03:26:46;;;;;;;8.77;7.53;;;;;;;;;;4973430;28;20246;-75
2023/07/11 03:29:13;;;;;;;8.63;7.73;;;;;;;;;;4970393;28;20193;-76
2023/07/11 03:31:38;;;;;;;11.27;7.60;;;;;;;;;;4979898;28;20239;-76
2023/07/11 03:34:04;;;;;;;16.60;8.70;;;;;;;;;;4970996;28;20306;-76
2023/07/11 03:36:29;;;;;;;12.77;9.07;;;;;;;;;;4973770;28;20170;-76
2023/07/11 03:38:54;;;;;;;11.83;10.50;;;;;;;;;;4985887;28;20370;-76
2023/07/11 03:41:19;;;;;;;11.47;9.83;;;;;;;;;;4990726;28;20181;-76
2023/07/11 03:43:44;;;;;;;11.23;9.10;;;;;;;;;;4984169;28;20182;-76
2023/07/11 03:46:10;;;;;;;9.83;8.73;;;;;;;;;;4988035;28;20187;-76
2023/07/11 03:48:35;;;;;;;10.73;8.53;;;;;;;;;;4972224;28;20247;-75
2023/07/11 03:51:01;;;;;;;9.47;8.23;;;;;;;;;;4974917;28;20184;-76
2023/07/11 03:53:26;;;;;;;8.60;7.70;;;;;;;;;;4990101;28;20208;-76
2023/07/11 03:55:51;;;;;;;10.57;7.97;;;;;;;;;;4983896;28;20175;-76
2023/07/11 03:58:16;;;;;;;7.20;6.37;;;;;;;;;;4974689;28;20201;-77
2023/07/11 04:00:41;;;;;;;7.60;6.53;;;;;;;;;;4969261;28;20185;-78
2023/07/11 04:03:07;;;;;;;9.43;6.93;;;;;;;;;;4982663;28;20193;-78
2023/07/11 04:05:32;;;;;;;7.00;6.30;;;;;;;;;;4972026;28;20405;-78
2023/07/11 04:07:57;;;;;;;6.20;5.57;;;;;;;;;;4975186;28;20197;-75
2023/07/11 04:10:25;;;;;;;9.33;5.87;;;;;;;;;;4986490;28;20177;-77
2023/07/11 04:12:50;;;;;;;7.00;5.50;;;;;;;;;;4984536;28;20199;-78
2023/07/11 04:15:16;;;;;;;6.50;5.30;;;;;;;;;;4970007;28;20183;-78
2023/07/11 04:17:41;;;;;;;6.63;5.20;;;;;;;;;;4987603;28;20195;-77
2023/07/11 04:20:07;;;;;;;5.80;5.20;;;;;;;;;;4970507;28;20190;-75
2023/07/11 04:22:32;;;;;;;7.07;5.33;;;;;;;;;;4973593;28;20182;-76
2023/07/11 04:24:57;;;;;;;6.37;4.83;;;;;;;;;;4984635;28;20276;-76
2023/07/11 04:27:23;;;;;;;7.37;5.50;;;;;;;;;;4988195;28;20329;-76
2023/07/11 04:29:48;;;;;;;6.00;5.30;;;;;;;;;;4960827;28;20174;-76
2023/07/11 04:32:14;;;;;;;5.83;5.10;;;;;;;;;;4983595;28;20174;-76
2023/07/11 04:34:40;;;;;;;6.47;4.60;;;;;;;;;;4967869;28;20269;-76
2023/07/11 04:37:05;;;;;;;7.17;4.83;;;;;;;;;;4966480;28;20187;-76
2023/07/11 04:39:31;;;;;;;6.83;5.17;;;;;;;;;;4977847;28;20341;-76
2023/07/11 04:41:56;;;;;;;5.17;4.67;;;;;;;;;;4967019;28;20175;-74
2023/07/11 04:44:21;;;;;;;5.70;5.10;;;;;;;;;;4970579;28;20243;-73
2023/07/11 04:46:46;;;;;;;6.37;5.17;;;;;;;;;;4974211;28;20194;-73
2023/07/11 04:49:12;;;;;;;5.07;4.37;;;;;;;;;;4964155;28;20183;-75
2023/07/11 04:51:37;;;;;;;5.97;4.77;;;;;;;;;;4964885;28;20255;-76
2023/07/11 04:54:02;;;;;;;12.30;5.60;;;;;;;;;;4977604;28;20282;-76
2023/07/11 04:56:28;;;;;;;5.40;4.90;;;;;;;;;;4967268;28;20239;-76
2023/07/11 04:58:53;;;;;;;5.20;4.70;;;;;;;;;;4965376;28;20179;-76
2023/07/11 05:01:18;;;;;;;5.13;4.07;;;;;;;;;;4988524;28;20183;-76
2023/07/11 05:03:44;;;;;;;5.83;4.90;;;;;;;;;;4973894;28;20215;-75
2023/07/11 05:06:10;;;;;;;6.17;4.60;;;;;;;;;;4980095;28;20175;-76
2023/07/11 05:08:35;;;;;;;5.17;4.60;;;;;;;;;;4979515;28;20266;-75
2023/07/11 05:11:07;;;;;;;4.80;4.30;;;;;;;;;;4966987;28;20182;-73
2023/07/11 05:13:33;;;;;;;5.13;4.53;;;;;;;;;;4980332;28;20199;-74
2023/07/11 05:16:03;;;;;;;7.47;4.57;;;;;;;;;;4986484;28;20207;-73
2023/07/11 05:18:29;;;;;;;5.70;5.07;;;;;;;;;;4980387;28;20195;-73
2023/07/11 05:20:58;;;;;;;5.40;4.37;;;;;;;;;;4987813;28;20186;-76
2023/07/11 05:23:24;;;;;;;5.47;4.40;;;;;;;;;;4972058;28;20186;-77
2023/07/11 05:25:49;;;;;;;4.53;4.07;;;;;;;;;;4972538;28;20298;-76
2023/07/11 05:28:16;;;;;;;7.23;5.00;;;;;;;;;;4986419;28;20270;-76
2023/07/11 05:30:41;;;;;;;5.37;4.50;;;;;;;;;;4970864;28;20222;-76
2023/07/11 05:33:06;;;;;;;6.43;4.83;;;;;;;;;;4967338;28;20180;-76
2023/07/11 05:38:35;;;;;;;11.57;5.10;;;;;;;;;;4976061;28;20333;-76
2023/07/11 05:41:00;;;;;;;6.47;5.20;;;;;;;;;;4963821;28;20274;-76
2023/07/11 05:43:25;;;;;;;5.27;4.47;;;;;;;;;;4966620;28;20184;-76
2023/07/11 05:45:51;;;;;;;7.37;5.80;;;;;;;;;;4989819;28;20321;-76
2023/07/11 05:48:16;;;;;;;8.73;5.00;;;;;;;;;;4969243;28;20184;-76
2023/07/11 05:50:41;;;;;;;5.13;4.63;;;;;;;;;;4987195;28;20220;-76
2023/07/11 05:53:07;;;;;;;6.07;5.20;;;;;;;;;;4987617;28;20238;-76
2023/07/11 05:55:32;;;;;;;5.83;4.80;;;;;;;;;;4985071;28;20193;-76
2023/07/11 05:57:57;;;;;;;9.40;5.27;;;;;;;;;;4993563;28;20176;-73
2023/07/11 06:00:22;;;;;;;8.88;5.60;;;;;;;;;;4974060;28;20228;-73
2023/07/11 06:02:47;;;;;;;5.77;4.87;;;;;;;;;;4988622;28;20184;-74
2023/07/11 06:05:13;;;;;;;5.67;4.83;;;;;;;;;;4972119;28;20191;-74
2023/07/11 06:07:39;;;;;;;6.18;5.55;;;;;;;;;;4987593;28;20176;-74
2023/07/11 06:10:04;;;;;;;10.00;6.60;;;;;;;;;;4992505;28;20247;-73
2023/07/11 06:12:30;;;;;;;5.63;5.13;;;;;;;;;;4990038;28;20283;-76
2023/07/11 06:14:55;;;;;;;7.70;6.00;;;;;;;;;;4985087;28;20215;-74
2023/07/11 06:17:20;;;;;;;7.95;5.38;;;;;;;;;;4963648;28;20251;-73
2023/07/11 06:19:45;;;;;;;5.15;4.75;;;;;;;;;;4969732;28;20215;-73
2023/07/11 06:22:12;;;;;;;5.43;4.93;;;;;;;;;;4989513;28;20180;-73
2023/07/11 06:24:37;;;;;;;5.88;5.38;;;;;;;;;;4969947;28;20287;-73
2023/07/11 06:27:03;;;;;;;6.35;5.47;;;;;;;;;;4968230;28;20263;-74
2023/07/11 06:29:28;;;;;;;5.95;4.80;;;;;;;;;;4991505;28;20168;-74
2023/07/11 06:31:54;;;;;;;5.57;5.05;;;;;;;;;;4989294;28;20192;-74
2023/07/11 06:34:19;;;;;;;6.10;5.05;;;;;;;;;;4992679;28;20204;-73
2023/07/11 06:36:44;;;;;;;5.82;5.32;;;;;;;;;;4975956;28;20183;-74
2023/07/11 06:39:09;;;;;;;6.63;6.03;;;;;;;;;;4974975;28;20200;-73
2023/07/11 06:41:35;;;;;;;7.50;5.28;;;;;;;;;;4980544;28;20179;-72
2023/07/11 06:44:00;;;;;;;9.23;6.95;;;;;;;;;;4989649;28;20200;-71
2023/07/11 06:46:25;;;;;;;5.43;4.93;;;;;;;;;;4986257;28;20185;-72
2023/07/11 06:48:50;;;;;;;6.85;5.82;;;;;;;;;;4990660;28;20248;-71
2023/07/11 06:51:16;;;;;;;6.35;5.75;;;;;;;;;;4989829;28;20184;-71
2023/07/11 06:53:41;;;;;;;11.63;5.97;;;;;;;;;;4992006;28;20200;-72
2023/07/11 06:56:06;;;;;;;6.00;5.40;;;;;;;;;;4970601;28;20192;-72
2023/07/11 06:58:31;;;;;;;6.13;5.53;;;;;;;;;;4969936;28;20184;-72
2023/07/11 07:00:59;;;;;;;7.60;5.90;;;;;;;;;;4991563;28;20172;-72
2023/07/11 07:03:25;;;;;;;5.97;5.35;;;;;;;;;;4970890;28;20173;-72
2023/07/11 07:05:51;;;;;;;13.45;6.47;;;;;;;;;;4978740;28;20211;-72
2023/07/11 07:08:16;;;;;;;6.10;5.53;;;;;;;;;;4978569;28;20191;-72
2023/07/11 07:10:43;;;;;;;6.93;4.88;;;;;;;;;;4987187;28;20255;-72
2023/07/11 07:13:08;;;;;;;6.80;5.30;;;;;;;;;;4969485;28;20207;-71
2023/07/11 07:15:33;;;;;;;6.07;5.57;;;;;;;;;;4984573;28;20207;-71
2023/07/11 07:17:58;;;;;;;6.45;5.60;;;;;;;;;;4990273;28;20184;-72
2023/07/11 07:20:23;;;;;;;7.10;6.40;;;;;;;;;;4986433;28;20243;-72
2023/07/11 07:22:48;;;;;;;8.45;6.45;;;;;;;;;;4970686;28;20254;-72
2023/07/11 07:25:14;;;;;;;10.13;5.60;;;;;;;;;;4985953;28;20200;-72
2023/07/11 07:27:39;;;;;;;6.80;5.50;;;;;;;;;;4988229;28;20172;-72
2023/07/11 07:30:04;;;;;;;6.07;5.22;;;;;;;;;;4987041;28;20303;-72
2023/07/11 07:32:30;;;;;;;5.70;5.22;;;;;;;;;;4985727;28;20226;-72
2023/07/11 07:34:55;;;;;;;6.22;5.00;;;;;;;;;;4967286;28;20207;-72
2023/07/11 07:37:20;;;;;;;5.97;5.38;;;;;;;;;;4986154;28;20175;-72
2023/07/11 07:39:45;;;;;;;6.63;5.90;;;;;;;;;;4971417;28;20196;-72
2023/07/11 07:42:10;;;;;;;5.70;5.20;;;;;;;;;;4987228;28;20204;-72
2023/07/11 07:44:36;;;;;;;7.10;5.68;;;;;;;;;;4987449;28;20322;-72
2023/07/11 07:47:01;;;;;;;11.10;6.65;;;;;;;;;;4985927;28;20184;-72
2023/07/11 07:49:26;;;;;;;6.65;6.05;;;;;;;;;;4965485;28;20179;-72
2023/07/11 07:51:53;;;;;;;7.13;6.53;;;;;;;;;;4989430;28;20204;-72
2023/07/11 07:54:18;;;;;;;7.72;6.05;;;;;;;;;;4985550;28;20180;-72
2023/07/11 07:56:44;;;;;;;7.47;6.73;;;;;;;;;;4967587;28;20177;-72
2023/07/11 07:59:09;;;;;;;7.47;6.25;;;;;;;;;;4970096;28;20480;-72
2023/07/11 08:01:34;;;;;;;6.65;5.70;;;;;;;;;;4971632;28;20271;-72
2023/07/11 08:03:59;;;;;;;8.85;6.40;;;;;;;;;;4972611;28;20184;-72
2023/07/11 08:06:25;;;;;;;7.80;6.32;;;;;;;;;;4985709;28;20207;-72
2023/07/11 08:08:50;;;;;;;9.77;6.63;;;;;;;;;;4970518;28;20180;-72
2023/07/11 08:11:16;;;;;;;6.25;5.70;;;;;;;;;;4973952;28;20189;-72
2023/07/11 08:13:41;;;;;;;6.50;5.88;;;;;;;;;;4984641;28;20187;-71
2023/07/11 08:16:07;;;;;;;6.72;5.60;;;;;;;;;;4965412;28;20196;-72
2023/07/11 08:18:32;;;;;;;6.97;6.25;;;;;;;;;;4970900;28;20191;-72
2023/07/11 08:20:57;;;;;;;7.63;5.93;;;;;;;;;;4965199;28;20191;-72
2023/07/11 08:23:23;;;;;;;6.70;6.10;;;;;;;;;;4965776;28;20191;-72
2023/07/11 08:25:52;;;;;;;6.50;5.95;;;;;;;;;;4987901;28;20557;-72
2023/07/11 08:28:17;;;;;;;8.32;6.35;;;;;;;;;;4976858;28;20263;-72
2023/07/11 08:30:42;;;;;;;10.20;6.75;;;;;;;;;;4983662;28;20259;-72
2023/07/11 08:33:07;;;;;;;6.38;5.65;;;;;;;;;;4988932;28;20209;-72
2023/07/11 08:35:33;;;;;;;6.65;6.05;;;;;;;;;;4974315;28;20172;-72
2023/07/11 08:37:58;;;;;;;6.20;5.70;;;;;;;;;;4966905;28;20212;-72
2023/07/11 08:40:27;;;;;;;6.05;5.53;;;;;;;;;;4967178;28;20247;-72
2023/07/11 08:42:52;;;;;;;7.35;6.13;;;;;;;;;;4984378;28;20183;-72
2023/07/11 08:45:29;;;;;;;6.53;5.95;;;;;;;;;;4981187;28;20233;-72
2023/07/11 08:47:58;;;;;;;9.30;6.60;;;;;;;;;;4989422;28;20188;-72
2023/07/11 08:50:25;;;;;;;5.95;5.45;;;;;;;;;;4977006;28;20184;-72
2023/07/11 08:52:53;;;;;;;7.78;6.95;;;;;;;;;;4970770;28;20173;-72
2023/07/11 08:55:24;;;;;;;8.25;6.10;;;;;;;;;;4984279;28;20238;-71
2023/07/11 08:57:55;;;;;;;7.20;6.22;;;;;;;;;;4992234;28;20187;-72
2023/07/11 09:00:20;;;;;;;9.55;6.13;;;;;;;;;;4971803;28;20266;-72
2023/07/11 09:02:55;;;;;;;6.38;5.88;;;;;;;;;;4971743;28;20280;-72
2023/07/11 09:05:42;;;;;;;7.15;6.05;;;;;;;;;;4975884;28;20200;-72
2023/07/11 09:08:15;;;;;;;6.30;5.70;;;;;;;;;;4966570;28;20181;-71
2023/07/11 09:10:46;;;;;;;6.85;6.25;;;;;;;;;;4966836;28;20228;-72
2023/07/11 09:13:15;;;;;;;8.85;6.75;;;;;;;;;;4974018;28;20199;-71
2023/07/11 09:15:59;;;;;;;12.80;6.38;;;;;;;;;;4963589;28;20181;-72
2023/07/11 09:18:37;;;;;;;6.50;6.00;;;;;;;;;;4962581;28;20173;-72
2023/07/11 09:21:05;;;;;;;6.93;6.32;;;;;;;;;;4981465;28;20226;-72
2023/07/11 09:23:38;;;;;;;6.45;5.85;;;;;;;;;;4971386;28;20184;-71
2023/07/11 09:26:07;;;;;;;8.00;6.22;;;;;;;;;;4990174;28;20211;-72
2023/07/11 09:28:33;;;;;;;7.95;7.10;;;;;;;;;;4985925;28;20168;-74
2023/07/11 09:31:05;;;;;;;12.30;7.68;;;;;;;;;;4969352;28;20287;-72
2023/07/11 09:33:31;;;;;;;12.73;6.60;;;;;;;;;;4982014;28;20255;-72
2023/07/11 09:35:57;;;;;;;7.57;6.90;;;;;;;;;;4972231;28;20180;-72
2023/07/11 09:38:23;;;;;;;9.95;7.05;;;;;;;;;;4972126;28;20184;-72
2023/07/11 09:40:50;;;;;;;7.40;6.70;;;;;;;;;;4981804;28;20178;-72
2023/07/11 09:43:15;;;;;;;13.27;6.93;;;;;;;;;;4963265;28;20173;-71
2023/07/11 09:45:42;;;;;;;7.45;5.88;;;;;;;;;;4981424;28;20232;-72
2023/07/11 09:48:07;;;;;;;6.85;6.15;;;;;;;;;;4972999;28;20179;-72
2023/07/11 09:50:35;;;;;;;6.75;6.15;;;;;;;;;;4984500;28;20161;-72
2023/07/11 09:53:01;;;;;;;6.80;6.20;;;;;;;;;;4991543;28;20258;-72
2023/07/11 09:55:35;;;;;;;6.70;6.00;;;;;;;;;;4984720;28;20275;-72
2023/07/11 09:58:01;;;;;;;7.00;6.30;;;;;;;;;;4980106;28;20271;-72
2023/07/11 10:00:27;;;;;;;7.13;6.32;;;;;;;;;;4973846;28;20246;-72
2023/07/11 10:02:53;;;;;;;6.90;6.20;;;;;;;;;;4974203;28;20223;-72
2023/07/11 10:05:20;;;;;;;6.93;6.25;;;;;;;;;;4972498;28;20215;-74
2023/07/11 10:07:54;;;;;;;7.75;6.55;;;;;;;;;;4986855;28;20255;-73
2023/07/11 10:10:20;;;;;;;6.88;6.22;;;;;;;;;;4971736;28;20168;-72
2023/07/11 10:12:45;;;;;;;7.10;6.40;;;;;;;;;;4977830;28;20196;-72
2023/07/11 10:15:15;;;;;;;7.50;6.90;;;;;;;;;;4982085;28;20191;-72
2023/07/11 10:17:42;;;;;;;8.48;6.45;;;;;;;;;;4987954;28;20226;-72
2023/07/11 10:20:12;;;;;;;8.07;7.25;;;;;;;;;;4972873;28;20231;-72
2023/07/11 10:22:37;;;;;;;7.82;7.10;;;;;;;;;;4991561;28;20176;-72
2023/07/11 10:25:03;;;;;;;7.47;6.30;;;;;;;;;;4970552;28;20202;-72
2023/07/11 10:27:35;;;;;;;7.03;6.30;;;;;;;;;;4975622;28;20276;-72
2023/07/11 10:30:03;;;;;;;7.50;6.70;;;;;;;;;;4973959;28;20177;-72
2023/07/11 10:32:33;;;;;;;8.27;6.22;;;;;;;;;;4982528;28;20228;-72
2023/07/11 10:35:00;;;;;;;9.45;6.40;;;;;;;;;;4971219;28;20184;-72
2023/07/11 10:37:25;;;;;;;6.95;6.35;;;;;;;;;;4980495;28;20177;-72
2023/07/11 10:40:00;;;;;;;7.20;6.60;;;;;;;;;;4992320;28;20180;-72
2023/07/11 10:42:29;;;;;;;6.65;6.05;;;;;;;;;;4977228;28;20406;-72
2023/07/11 10:45:15;;;;;;;7.32;5.88;;;;;;;;;;4974257;28;20228;-72
2023/07/11 10:47:53;;;;;;;9.48;6.90;;;;;;;;;;4967802;28;20183;-72
2023/07/11 10:50:23;;;;;;;7.45;6.47;;;;;;;;;;4988107;28;20189;-72
2023/07/11 10:52:51;;;;;;;7.18;5.90;;;;;;;;;;4988344;28;20180;-72
2023/07/11 10:55:18;;;;;;;7.47;6.50;;;;;;;;;;4985557;28;20173;-72
2023/07/11 10:57:46;;;;;;;6.93;6.10;;;;;;;;;;4989863;28;20193;-72
2023/07/11 11:00:16;;;;;;;7.97;6.43;;;;;;;;;;4988477;28;20177;-72
2023/07/11 11:03:00;;;;;;;8.43;6.03;;;;;;;;;;4971514;28;20181;-72
2023/07/11 11:05:35;;;;;;;7.63;6.85;;;;;;;;;;4990276;28;20204;-72
2023/07/11 11:08:04;;;;;;;7.20;6.22;;;;;;;;;;4973847;28;20179;-72
2023/07/11 11:10:33;;;;;;;9.68;6.40;;;;;;;;;;4987146;28;20181;-72
2023/07/11 11:13:11;;;;;;;6.75;6.00;;;;;;;;;;4978534;28;20195;-72
2023/07/11 11:15:36;;;;;;;7.85;6.40;;;;;;;;;;4982511;28;20191;-72
2023/07/11 11:18:07;;;;;;;6.87;5.87;;;;;;;;;;4992401;28;20176;-72
2023/07/11 11:20:36;;;;;;;8.95;7.03;;;;;;;;;;4980301;28;20413;-72
2023/07/11 11:23:01;;;;;;;7.55;6.20;;;;;;;;;;4990748;28;20196;-72
2023/07/11 11:25:37;;;;;;;6.37;5.77;;;;;;;;;;4972647;28;20242;-72
2023/07/11 11:28:03;;;;;;;12.10;7.30;;;;;;;;;;4985653;28;20418;-71
2023/07/11 11:30:31;;;;;;;9.10;6.90;;;;;;;;;;4992379;28;20173;-72
2023/07/11 11:33:05;;;;;;;9.77;6.97;;;;;;;;;;4987630;28;20242;-72
2023/07/11 11:35:49;;;;;;;7.15;6.45;;;;;;;;;;4985837;28;20172;-72
2023/07/11 11:38:14;;;;;;;9.05;6.82;;;;;;;;;;4987645;28;20190;-72
2023/07/11 11:40:40;;;;;;;7.78;7.07;;;;;;;;;;4977834;28;20177;-72
2023/07/11 11:43:09;;;;;;;7.85;7.05;;;;;;;;;;4966428;28;20233;-72
2023/07/11 11:45:35;;;;;;;8.57;7.20;;;;;;;;;;4983186;28;20220;-72
2023/07/11 11:48:02;;;;;;;7.75;6.95;;;;;;;;;;4979041;28;20176;-72
2023/07/11 11:50:28;;;;;;;8.52;6.68;;;;;;;;;;4975298;28;20180;-72
2023/07/11 11:52:55;;;;;;;7.93;7.15;;;;;;;;;;4988389;28;20176;-72
2023/07/11 11:55:25;;;;;;;7.35;6.60;;;;;;;;;;4984563;28;20165;-72
2023/07/11 11:57:50;;;;;;;8.98;7.00;;;;;;;;;;4993228;28;20178;-72
2023/07/11 12:00:31;;;;;;;7.35;6.65;;;;;;;;;;4982290;28;20263;-72
2023/07/11 12:02:56;;;;;;;8.55;7.47;;;;;;;;;;4985081;28;20167;-72
2023/07/11 12:05:22;;;;;;;8.38;7.57;;;;;;;;;;4972924;28;20207;-72
2023/07/11 12:08:07;;;;;;;10.90;7.38;;;;;;;;;;4972166;28;20180;-72
2023/07/11 12:10:36;;;;;;;8.27;7.45;;;;;;;;;;4985226;28;20258;-72
2023/07/11 12:13:17;;;;;;;7.95;7.10;;;;;;;;;;4984352;28;20208;-73
2023/07/11 12:15:45;;;;;;;8.07;7.03;;;;;;;;;;4976745;28;20195;-74
2023/07/11 12:18:23;;;;;;;6.90;6.25;;;;;;;;;;4984081;28;20192;-74
2023/07/11 12:21:04;;;;;;;7.75;6.80;;;;;;;;;;4990438;28;20179;-75
2023/07/11 12:23:31;;;;;;;12.38;7.05;;;;;;;;;;4985364;28;20180;-75
2023/07/11 12:26:11;;;;;;;7.65;6.95;;;;;;;;;;4972426;28;20207;-74
2023/07/11 12:28:36;;;;;;;8.68;6.82;;;;;;;;;;4986840;28;20252;-74
2023/07/11 12:31:14;;;;;;;7.88;7.07;;;;;;;;;;4972933;28;20268;-75
2023/07/11 12:33:39;;;;;;;8.60;7.53;;;;;;;;;;4990467;28;20254;-74
2023/07/11 12:36:10;;;;;;;7.63;6.85;;;;;;;;;;4986072;28;20236;-75
2023/07/11 12:38:40;;;;;;;8.85;6.60;;;;;;;;;;4973486;28;20230;-75
2023/07/11 12:41:24;;;;;;;9.52;6.25;;;;;;;;;;4974810;28;20187;-75
2023/07/11 12:43:51;;;;;;;9.65;8.23;;;;;;;;;;4987009;28;20172;-75
2023/07/11 12:46:19;;;;;;;7.68;6.85;;;;;;;;;;4983888;28;20246;-75
2023/07/11 12:48:46;;;;;;;9.15;7.45;;;;;;;;;;4973622;28;20275;-75
2023/07/11 12:51:22;;;;;;;6.88;6.32;;;;;;;;;;4981755;28;20177;-75
2023/07/11 12:53:55;;;;;;;8.23;6.35;;;;;;;;;;4963079;28;20177;-75
2023/07/11 12:56:21;;;;;;;10.15;6.43;;;;;;;;;;4987033;28;20176;-75
2023/07/11 12:58:47;;;;;;;7.38;6.78;;;;;;;;;;4987768;28;20176;-74
2023/07/11 13:01:15;;;;;;;12.98;7.25;;;;;;;;;;4980185;28;20192;-75
2023/07/11 13:03:40;;;;;;;10.80;6.32;;;;;;;;;;4988226;28;20194;-75
2023/07/11 13:06:22;;;;;;;8.43;6.53;;;;;;;;;;4983066;28;20204;-75
2023/07/11 13:08:48;;;;;;;6.15;5.65;;;;;;;;;;4986317;28;20180;-75
2023/07/11 13:11:24;;;;;;;7.65;6.40;;;;;;;;;;4984304;28;20165;-75
2023/07/11 13:13:49;;;;;;;7.13;6.45;;;;;;;;;;4986588;28;20215;-75
2023/07/11 13:16:15;;;;;;;7.72;6.80;;;;;;;;;;4969583;28;20226;-75
2023/07/11 13:18:47;;;;;;;7.90;6.43;;;;;;;;;;4969650;28;20183;-75
2023/07/11 13:21:13;;;;;;;7.93;7.13;;;;;;;;;;4964129;28;20203;-75
2023/07/11 13:23:41;;;;;;;7.43;6.75;;;;;;;;;;4970471;28;20176;-75
2023/07/11 13:26:10;;;;;;;7.28;6.57;;;;;;;;;;4985156;28;20211;-75
2023/07/11 13:28:39;;;;;;;7.40;6.70;;;;;;;;;;4972192;28;20210;-75
2023/07/11 13:31:06;;;;;;;8.05;6.88;;;;;;;;;;4972760;28;20172;-75
2023/07/11 13:33:31;;;;;;;7.95;6.72;;;;;;;;;;4969572;28;20176;-75
2023/07/11 13:35:58;;;;;;;8.23;6.97;;;;;;;;;;4986059;28;20183;-75
2023/07/11 13:38:57;;;;;;;7.05;6.45;;;;;;;;;;4976224;28;20234;-75
2023/07/11 13:41:26;;;;;;;10.45;7.35;;;;;;;;;;4929021;28;20188;-75
2023/07/11 13:43:53;;;;;;;7.90;7.22;;;;;;;;;;4994140;28;20192;-75
2023/07/11 13:46:22;;;;;;;8.18;7.47;;;;;;;;;;4990705;28;20326;-75
2023/07/11 13:48:48;;;;;;;13.48;9.23;;;;;;;;;;4987406;28;20184;-75
2023/07/11 13:51:16;;;;;;;10.95;9.60;;;;;;;;;;4992720;28;20203;-75
2023/07/11 13:53:44;;;;;;;10.38;9.38;;;;;;;;;;4990064;28;20190;-75
2023/07/11 13:56:10;;;;;;;10.30;9.35;;;;;;;;;;4977107;28;20223;-75
2023/07/11 13:58:35;;;;;;;9.88;8.90;;;;;;;;;;4991607;28;20199;-75
2023/07/11 14:01:00;;;;;;;9.87;8.87;;;;;;;;;;4990175;28;20180;-75
2023/07/11 14:03:25;;;;;;;9.17;8.37;;;;;;;;;;4974382;28;20472;-75
2023/07/11 14:05:53;;;;;;;9.77;8.13;;;;;;;;;;4993156;28;20449;-75
2023/07/11 14:08:18;;;;;;;13.68;9.45;;;;;;;;;;4991560;28;20188;-75
2023/07/11 14:10:44;;;;;;;10.88;8.23;;;;;;;;;;4988453;28;20176;-75
2023/07/11 14:13:17;;;;;;;12.70;8.45;;;;;;;;;;4971796;28;20247;-75
2023/07/11 14:15:43;;;;;;;10.35;8.57;;;;;;;;;;4988345;28;20187;-75
2023/07/11 14:18:09;;;;;;;8.75;7.40;;;;;;;;;;4985476;28;20184;-75
2023/07/11 14:20:34;;;;;;;9.25;7.78;;;;;;;;;;4974359;28;20183;-75
2023/07/11 14:22:59;;;;;;;9.63;8.35;;;;;;;;;;4967787;28;20219;-75
2023/07/11 14:25:27;;;;;;;9.23;8.05;;;;;;;;;;4988199;28;20238;-75
2023/07/11 14:27:53;;;;;;;11.57;7.90;;;;;;;;;;4987755;28;20185;-75
2023/07/11 14:30:19;;;;;;;10.70;9.18;;;;;;;;;;4981688;28;20173;-75
2023/07/11 14:32:45;;;;;;;12.57;9.70;;;;;;;;;;4971310;28;20242;-75
2023/07/11 14:35:21;;;;;;;11.07;9.23;;;;;;;;;;4972803;28;20191;-74
2023/07/11 14:37:47;;;;;;;9.65;8.68;;;;;;;;;;4974592;28;20179;-75
2023/07/11 14:40:16;;;;;;;9.07;8.25;;;;;;;;;;4989277;28;20188;-75
2023/07/11 14:42:42;;;;;;;11.43;9.18;;;;;;;;;;4972734;28;20188;-75
2023/07/11 14:45:17;;;;;;;15.00;10.00;;;;;;;;;;4984583;28;20224;-75